QFA475 YSSY-YMML
Flight info
| Callsign | QFA475 |
|---|---|
| Flight time | 1h 12m |
| Altitude | 36000 |
| Route | MARUB7/34R WOL H65 LEECE Q29 BOOIN DCT |
| Aircraft | B738/M-SDE2E3FGHIRWXY/LB1 |
Departure
| Time | 2026-05-04 08:13 |
|---|---|
| Airport | Sydney Kingsford Smith International Airport (YSSY) |
Arrival
| Time | 2026-05-04 09:25 |
|---|---|
| Airport | Melbourne Airport (YMML) |
| Time | Latitude | Longitude | Altitude | Speed | Heading |
|---|---|---|---|---|---|
| 2026-05-04 07:19 | -33.93160 | 151.17970 | 28 ft | 0 kts | 191° |
| 2026-05-04 07:58 | -33.93147 | 151.17973 | 28 ft | 2 kts | 191° |
| 2026-05-04 07:58 | -33.93132 | 151.17976 | 28 ft | 2 kts | 191° |
| 2026-05-04 07:58 | -33.93117 | 151.17979 | 28 ft | 2 kts | 191° |
| 2026-05-04 07:58 | -33.93102 | 151.17984 | 28 ft | 1 kts | 208° |
| 2026-05-04 07:59 | -33.93093 | 151.17996 | 28 ft | 2 kts | 260° |
| 2026-05-04 07:59 | -33.93093 | 151.18005 | 28 ft | 0 kts | 286° |
| 2026-05-04 07:59 | -33.93095 | 151.18012 | 28 ft | 0 kts | 280° |
| 2026-05-04 08:02 | -33.93008 | 151.17592 | 28 ft | 12 kts | 265° |
| 2026-05-04 08:02 | -33.93066 | 151.17528 | 28 ft | 12 kts | 202° |
| 2026-05-04 08:02 | -33.93153 | 151.17532 | 28 ft | 12 kts | 166° |
| 2026-05-04 08:03 | -33.93258 | 151.17561 | 28 ft | 18 kts | 167° |
| 2026-05-04 08:03 | -33.93391 | 151.17592 | 28 ft | 18 kts | 176° |
| 2026-05-04 08:03 | -33.93520 | 151.17593 | 28 ft | 18 kts | 167° |
| 2026-05-04 08:03 | -33.93639 | 151.17630 | 28 ft | 17 kts | 160° |
| 2026-05-04 08:04 | -33.93746 | 151.17686 | 28 ft | 16 kts | 168° |
| 2026-05-04 08:04 | -33.93844 | 151.17735 | 28 ft | 14 kts | 134° |
| 2026-05-04 08:04 | -33.93927 | 151.17789 | 28 ft | 13 kts | 171° |
| 2026-05-04 08:04 | -33.94031 | 151.17813 | 28 ft | 19 kts | 168° |
| 2026-05-04 08:05 | -33.94175 | 151.17851 | 28 ft | 21 kts | 168° |
| 2026-05-04 08:05 | -33.94335 | 151.17892 | 28 ft | 24 kts | 168° |
| 2026-05-04 08:05 | -33.94477 | 151.17891 | 28 ft | 18 kts | 201° |
| 2026-05-04 08:05 | -33.94605 | 151.17903 | 28 ft | 20 kts | 168° |
| 2026-05-04 08:06 | -33.94765 | 151.17946 | 28 ft | 26 kts | 168° |
| 2026-05-04 08:06 | -33.94945 | 151.17992 | 28 ft | 26 kts | 168° |
| 2026-05-04 08:06 | -33.95061 | 151.18024 | 28 ft | 4 kts | 159° |
| 2026-05-04 08:06 | -33.95097 | 151.18069 | 28 ft | 10 kts | 105° |
| 2026-05-04 08:08 | -33.95089 | 151.18521 | 28 ft | 14 kts | 146° |
| 2026-05-04 08:08 | -33.95183 | 151.18619 | 28 ft | 20 kts | 137° |
| 2026-05-04 08:10 | -33.96662 | 151.19070 | 28 ft | 22 kts | 168° |
| 2026-05-04 08:11 | -33.96819 | 151.19069 | 28 ft | 23 kts | 172° |
| 2026-05-04 08:11 | -33.97106 | 151.19154 | 28 ft | 15 kts | 133° |
| 2026-05-04 08:11 | -33.97112 | 151.19276 | 28 ft | 15 kts | 78° |
| 2026-05-04 08:12 | -33.97059 | 151.19371 | 28 ft | 15 kts | 2° |
| 2026-05-04 08:12 | -33.96876 | 151.19328 | 28 ft | 59 kts | 348° |
| 2026-05-04 08:12 | -33.96197 | 151.19151 | 28 ft | 139 kts | 348° |
| 2026-05-04 08:12 | -33.95099 | 151.18866 | 536 ft | 166 kts | 348° |
| 2026-05-04 08:13 | -33.94047 | 151.18749 | 1662 ft | 154 kts | 11° |
| 2026-05-04 08:13 | -33.93148 | 151.19392 | 2331 ft | 164 kts | 43° |
| 2026-05-04 08:13 | -33.92566 | 151.20670 | 2862 ft | 186 kts | 68° |
| 2026-05-04 08:13 | -33.92562 | 151.22290 | 3440 ft | 207 kts | 104° |
| 2026-05-04 08:14 | -33.93240 | 151.23813 | 4117 ft | 213 kts | 121° |
| 2026-05-04 08:14 | -33.93937 | 151.25371 | 4741 ft | 214 kts | 99° |
| 2026-05-04 08:14 | -33.93980 | 151.27153 | 5230 ft | 219 kts | 76° |
| 2026-05-04 08:16 | -33.93278 | 151.43082 | 9682 ft | 307 kts | 84° |
| 2026-05-04 08:16 | -33.93200 | 151.45644 | 10454 ft | 312 kts | 84° |
| 2026-05-04 08:16 | -33.93123 | 151.48308 | 10948 ft | 329 kts | 86° |
| 2026-05-04 08:17 | -33.93291 | 151.51111 | 11416 ft | 348 kts | 99° |
| 2026-05-04 08:17 | -33.94197 | 151.53885 | 11822 ft | 369 kts | 122° |
| 2026-05-04 08:17 | -33.95967 | 151.56194 | 12266 ft | 384 kts | 144° |
| 2026-05-04 08:17 | -33.98327 | 151.57658 | 12935 ft | 387 kts | 165° |
| 2026-05-04 08:19 | -34.10341 | 151.46014 | 17594 ft | 373 kts | 256° |
| 2026-05-04 08:19 | -34.11605 | 151.43213 | 18235 ft | 387 kts | 240° |
| 2026-05-04 08:20 | -34.13322 | 151.40671 | 18800 ft | 397 kts | 234° |
| 2026-05-04 08:20 | -34.15201 | 151.38209 | 19421 ft | 402 kts | 233° |
| 2026-05-04 08:20 | -34.17099 | 151.35721 | 20090 ft | 403 kts | 234° |
| 2026-05-04 08:20 | -34.18971 | 151.33189 | 20705 ft | 406 kts | 235° |
| 2026-05-04 08:21 | -34.20817 | 151.30614 | 21249 ft | 410 kts | 236° |
| 2026-05-04 08:21 | -34.22648 | 151.28000 | 21863 ft | 412 kts | 237° |
| 2026-05-04 08:21 | -34.24504 | 151.25313 | 22415 ft | 416 kts | 237° |
| 2026-05-04 08:21 | -34.26343 | 151.22630 | 22996 ft | 418 kts | 237° |
| 2026-05-04 08:22 | -34.28201 | 151.19910 | 23527 ft | 421 kts | 237° |
| 2026-05-04 08:22 | -34.30053 | 151.17189 | 24070 ft | 424 kts | 237° |
| 2026-05-04 08:24 | -34.43328 | 150.97600 | 27594 ft | 441 kts | 238° |
| 2026-05-04 08:24 | -34.45274 | 150.94716 | 28124 ft | 441 kts | 238° |
| 2026-05-04 08:24 | -34.47220 | 150.91836 | 28595 ft | 443 kts | 239° |
| 2026-05-04 08:24 | -34.49168 | 150.88951 | 29035 ft | 445 kts | 239° |
| 2026-05-04 08:25 | -34.51120 | 150.86050 | 29399 ft | 449 kts | 239° |
| 2026-05-04 08:25 | -34.53108 | 150.83098 | 29747 ft | 453 kts | 239° |
| 2026-05-04 08:25 | -34.55107 | 150.80127 | 30119 ft | 454 kts | 239° |
| 2026-05-04 08:25 | -34.57077 | 150.77168 | 30866 ft | 445 kts | 240° |
| 2026-05-04 08:26 | -34.58940 | 150.74217 | 31592 ft | 436 kts | 242° |
| 2026-05-04 08:27 | -34.71034 | 150.53894 | 34795 ft | 417 kts | 243° |
| 2026-05-04 08:28 | -34.72737 | 150.51039 | 35227 ft | 414 kts | 243° |
| 2026-05-04 08:28 | -34.74426 | 150.48210 | 35575 ft | 413 kts | 243° |
| 2026-05-04 08:28 | -34.76118 | 150.45378 | 35846 ft | 414 kts | 243° |
| 2026-05-04 08:28 | -34.77797 | 150.42566 | 36025 ft | 416 kts | 243° |
| 2026-05-04 08:29 | -34.81223 | 150.36815 | 36026 ft | 420 kts | 243° |
| 2026-05-04 08:31 | -34.94976 | 150.13727 | 36035 ft | 420 kts | 243° |
| 2026-05-04 08:33 | -35.08710 | 149.90503 | 35759 ft | 424 kts | 243° |
| 2026-05-04 08:35 | -35.20788 | 149.69954 | 36043 ft | 424 kts | 243° |
| 2026-05-04 08:35 | -35.22510 | 149.67015 | 36053 ft | 425 kts | 243° |
| 2026-05-04 08:35 | -35.25937 | 149.61160 | 36051 ft | 425 kts | 243° |
| 2026-05-04 08:37 | -35.37944 | 149.40556 | 36041 ft | 425 kts | 243° |
| 2026-05-04 08:38 | -35.41399 | 149.34602 | 36040 ft | 426 kts | 244° |
| 2026-05-04 08:38 | -35.44820 | 149.28708 | 36042 ft | 423 kts | 244° |
| 2026-05-04 08:40 | -35.58517 | 149.04973 | 36034 ft | 426 kts | 244° |
| 2026-05-04 08:41 | -35.61921 | 148.99056 | 36029 ft | 427 kts | 244° |
| 2026-05-04 08:41 | -35.65349 | 148.93079 | 36030 ft | 427 kts | 244° |
| 2026-05-04 08:42 | -35.68753 | 148.87140 | 36032 ft | 427 kts | 244° |
| 2026-05-04 08:42 | -35.72176 | 148.81149 | 36030 ft | 426 kts | 244° |
| 2026-05-04 08:43 | -35.75553 | 148.75240 | 36033 ft | 426 kts | 244° |
| 2026-05-04 08:43 | -35.78956 | 148.69263 | 36040 ft | 427 kts | 244° |
| 2026-05-04 08:44 | -35.82370 | 148.63264 | 36034 ft | 427 kts | 244° |
| 2026-05-04 08:46 | -35.95927 | 148.39279 | 36031 ft | 429 kts | 244° |
| 2026-05-04 08:46 | -35.99301 | 148.33270 | 36038 ft | 426 kts | 244° |
| 2026-05-04 08:47 | -36.02674 | 148.27251 | 36038 ft | 426 kts | 244° |
| 2026-05-04 08:47 | -36.06028 | 148.21268 | 36052 ft | 427 kts | 245° |
| 2026-05-04 08:48 | -36.09399 | 148.15236 | 36048 ft | 426 kts | 244° |
| 2026-05-04 08:48 | -36.12780 | 148.09169 | 36038 ft | 428 kts | 244° |
| 2026-05-04 08:49 | -36.16161 | 148.03120 | 36048 ft | 428 kts | 244° |
| 2026-05-04 08:50 | -36.28036 | 147.81812 | 36046 ft | 429 kts | 244° |
| 2026-05-04 08:51 | -36.31423 | 147.75709 | 36043 ft | 429 kts | 244° |
| 2026-05-04 08:51 | -36.34794 | 147.69618 | 36036 ft | 431 kts | 244° |
| 2026-05-04 08:52 | -36.38170 | 147.63500 | 36033 ft | 429 kts | 244° |
| 2026-05-04 08:52 | -36.41562 | 147.57336 | 36036 ft | 433 kts | 244° |
| 2026-05-04 08:54 | -36.55104 | 147.32626 | 36028 ft | 433 kts | 244° |
| 2026-05-04 08:55 | -36.58482 | 147.26439 | 36026 ft | 433 kts | 244° |
| 2026-05-04 08:55 | -36.61858 | 147.20239 | 36024 ft | 433 kts | 244° |
| 2026-05-04 09:01 | -36.96688 | 146.55611 | 31733 ft | 415 kts | 246° |
| 2026-05-04 09:01 | -36.98290 | 146.52618 | 31230 ft | 412 kts | 246° |
| 2026-05-04 09:01 | -36.99858 | 146.49684 | 30741 ft | 409 kts | 246° |
| 2026-05-04 09:01 | -37.01432 | 146.46736 | 30243 ft | 406 kts | 247° |
| 2026-05-04 09:02 | -37.02993 | 146.43806 | 29744 ft | 403 kts | 247° |
| 2026-05-04 09:02 | -37.04536 | 146.40901 | 29247 ft | 400 kts | 246° |
| 2026-05-04 09:02 | -37.06057 | 146.38037 | 28761 ft | 396 kts | 246° |
| 2026-05-04 09:02 | -37.07571 | 146.35187 | 28278 ft | 393 kts | 246° |
| 2026-05-04 09:03 | -37.09095 | 146.32310 | 27794 ft | 390 kts | 247° |
| 2026-05-04 09:03 | -37.10587 | 146.29491 | 27298 ft | 387 kts | 247° |
| 2026-05-04 09:03 | -37.12065 | 146.26694 | 26809 ft | 384 kts | 247° |
| 2026-05-04 09:03 | -37.13530 | 146.23924 | 26321 ft | 381 kts | 246° |
| 2026-05-04 09:04 | -37.14984 | 146.21170 | 25839 ft | 378 kts | 246° |
| 2026-05-04 09:04 | -37.16435 | 146.18420 | 25351 ft | 375 kts | 246° |
| 2026-05-04 09:04 | -37.17849 | 146.15739 | 24870 ft | 373 kts | 246° |
| 2026-05-04 09:04 | -37.19275 | 146.13032 | 24392 ft | 370 kts | 245° |
| 2026-05-04 09:05 | -37.20678 | 146.10368 | 23901 ft | 367 kts | 245° |
| 2026-05-04 09:05 | -37.22091 | 146.07683 | 23413 ft | 364 kts | 245° |
| 2026-05-04 09:05 | -37.23459 | 146.05080 | 22908 ft | 361 kts | 244° |
| 2026-05-04 09:05 | -37.24844 | 146.02444 | 22417 ft | 358 kts | 244° |
| 2026-05-04 09:06 | -37.26198 | 145.99869 | 21963 ft | 354 kts | 244° |
| 2026-05-04 09:07 | -37.35476 | 145.82164 | 18629 ft | 342 kts | 242° |
| 2026-05-04 09:08 | -37.36784 | 145.79674 | 18161 ft | 338 kts | 242° |
| 2026-05-04 09:08 | -37.38059 | 145.77239 | 17695 ft | 335 kts | 242° |
| 2026-05-04 09:08 | -37.39333 | 145.74805 | 17244 ft | 332 kts | 242° |
| 2026-05-04 09:08 | -37.40591 | 145.72395 | 16781 ft | 329 kts | 242° |
| 2026-05-04 09:09 | -37.41838 | 145.70004 | 16323 ft | 326 kts | 242° |
| 2026-05-04 09:09 | -37.43067 | 145.67647 | 15880 ft | 323 kts | 242° |
| 2026-05-04 09:09 | -37.44298 | 145.65286 | 15437 ft | 320 kts | 242° |
| 2026-05-04 09:09 | -37.45521 | 145.62958 | 14980 ft | 324 kts | 240° |
| 2026-05-04 09:10 | -37.46827 | 145.60631 | 14540 ft | 323 kts | 239° |
| 2026-05-04 09:10 | -37.48150 | 145.58375 | 14073 ft | 321 kts | 238° |
| 2026-05-04 09:10 | -37.49472 | 145.56143 | 13622 ft | 319 kts | 238° |
| 2026-05-04 09:10 | -37.50783 | 145.53915 | 13173 ft | 316 kts | 238° |
| 2026-05-04 09:11 | -37.52087 | 145.51682 | 12706 ft | 314 kts | 239° |
| 2026-05-04 09:11 | -37.53362 | 145.49490 | 12277 ft | 310 kts | 238° |
| 2026-05-04 09:11 | -37.54640 | 145.47290 | 11829 ft | 308 kts | 239° |
| 2026-05-04 09:11 | -37.55893 | 145.45126 | 11381 ft | 306 kts | 239° |
| 2026-05-04 09:12 | -37.57136 | 145.42975 | 10937 ft | 304 kts | 239° |
| 2026-05-04 09:12 | -37.58373 | 145.40825 | 10498 ft | 301 kts | 239° |
| 2026-05-04 09:14 | -37.66159 | 145.27301 | 8694 ft | 261 kts | 240° |
| 2026-05-04 09:14 | -37.67208 | 145.25468 | 8351 ft | 260 kts | 240° |
| 2026-05-04 09:14 | -37.68267 | 145.23625 | 8012 ft | 258 kts | 241° |
| 2026-05-04 09:14 | -37.69318 | 145.21808 | 7680 ft | 257 kts | 240° |
| 2026-05-04 09:15 | -37.70370 | 145.19981 | 7328 ft | 256 kts | 240° |
| 2026-05-04 09:15 | -37.71401 | 145.18173 | 6983 ft | 254 kts | 240° |
| 2026-05-04 09:15 | -37.72430 | 145.16368 | 6643 ft | 253 kts | 240° |
| 2026-05-04 09:15 | -37.73456 | 145.14581 | 6323 ft | 251 kts | 240° |
| 2026-05-04 09:17 | -37.81140 | 145.01051 | 4382 ft | 217 kts | 248° |
| 2026-05-04 09:18 | -37.81652 | 144.99321 | 4080 ft | 205 kts | 263° |
| 2026-05-04 09:18 | -37.81914 | 144.97569 | 3800 ft | 200 kts | 266° |
| 2026-05-04 09:18 | -37.82176 | 144.95859 | 3562 ft | 199 kts | 264° |
| 2026-05-04 09:18 | -37.82476 | 144.94133 | 3337 ft | 196 kts | 265° |
| 2026-05-04 09:19 | -37.82694 | 144.92490 | 3120 ft | 188 kts | 268° |
| 2026-05-04 09:19 | -37.82874 | 144.90880 | 2908 ft | 181 kts | 269° |
| 2026-05-04 09:19 | -37.83043 | 144.89337 | 2701 ft | 173 kts | 271° |
| 2026-05-04 09:19 | -37.82904 | 144.87906 | 2508 ft | 159 kts | 301° |
| 2026-05-04 09:20 | -37.82108 | 144.87022 | 2501 ft | 156 kts | 334° |
| 2026-05-04 09:20 | -37.81065 | 144.86618 | 2500 ft | 158 kts | 342° |
| 2026-05-04 09:20 | -37.80000 | 144.86319 | 2503 ft | 149 kts | 343° |
| 2026-05-04 09:20 | -37.78992 | 144.86083 | 2485 ft | 142 kts | 345° |
| 2026-05-04 09:21 | -37.78020 | 144.85878 | 2293 ft | 139 kts | 346° |
| 2026-05-04 09:21 | -37.77099 | 144.85698 | 2068 ft | 129 kts | 347° |
| 2026-05-04 09:21 | -37.76223 | 144.85533 | 1934 ft | 126 kts | 347° |
| 2026-05-04 09:21 | -37.75365 | 144.85371 | 1758 ft | 124 kts | 348° |
| 2026-05-04 09:22 | -37.74482 | 144.85207 | 1598 ft | 126 kts | 348° |
| 2026-05-04 09:22 | -37.73607 | 144.85040 | 1423 ft | 127 kts | 349° |
| 2026-05-04 09:22 | -37.72726 | 144.84874 | 1250 ft | 127 kts | 349° |
| 2026-05-04 09:22 | -37.71840 | 144.84708 | 1078 ft | 128 kts | 350° |
| 2026-05-04 09:23 | -37.70951 | 144.84541 | 912 ft | 130 kts | 351° |
| 2026-05-04 09:23 | -37.70060 | 144.84372 | 745 ft | 131 kts | 351° |
| 2026-05-04 09:23 | -37.69151 | 144.84201 | 557 ft | 131 kts | 352° |
| 2026-05-04 09:23 | -37.68258 | 144.84039 | 469 ft | 129 kts | 353° |
| 2026-05-04 09:25 | -37.66509 | 144.83885 | 441 ft | 1 kts | 89° |
| 2026-05-04 09:25 | -37.66509 | 144.83887 | 441 ft | 0 kts | 89° |
| 2026-05-04 09:27 | -37.66513 | 144.83948 | 441 ft | 15 kts | 95° |
| 2026-05-04 09:27 | -37.66532 | 144.84088 | 441 ft | 16 kts | 117° |
| 2026-05-04 09:27 | -37.66621 | 144.84161 | 441 ft | 15 kts | 169° |
| 2026-05-04 09:27 | -37.66695 | 144.84233 | 441 ft | 14 kts | 94° |
| 2026-05-04 09:28 | -37.66681 | 144.84374 | 441 ft | 17 kts | 82° |
| 2026-05-04 09:28 | -37.66662 | 144.84526 | 441 ft | 17 kts | 82° |
| 2026-05-04 09:28 | -37.66645 | 144.84676 | 441 ft | 16 kts | 81° |
| 2026-05-04 09:28 | -37.66656 | 144.84790 | 441 ft | 10 kts | 141° |
| 2026-05-04 09:29 | -37.66686 | 144.84857 | 441 ft | 8 kts | 80° |
| 2026-05-04 09:29 | -37.66680 | 144.84900 | 441 ft | 0 kts | 81° |